createdAt,value
2023-02-28T00:01:10.538Z,103306.97
2023-02-28T00:03:38.797Z,103309.72
2023-02-28T00:06:08.050Z,103301.53
2023-02-28T00:08:34.929Z,103309.00
2023-02-28T00:11:03.943Z,103301.44
2023-02-28T00:13:31.580Z,103306.75
2023-02-28T00:16:10.451Z,103305.13
2023-02-28T00:18:37.726Z,103303.13
2023-02-28T00:21:05.598Z,103299.03
2023-02-28T00:23:32.942Z,103298.78
2023-02-28T00:25:59.717Z,103304.31
2023-02-28T00:28:26.772Z,103307.56
2023-02-28T00:30:53.823Z,103306.13
2023-02-28T00:33:20.953Z,103305.56
2023-02-28T00:35:49.947Z,103305.00
2023-02-28T00:38:17.350Z,103308.34
2023-02-28T00:40:44.199Z,103310.03
2023-02-28T00:43:11.954Z,103313.13
2023-02-28T00:45:39.069Z,103303.97
2023-02-28T00:48:06.208Z,103305.69
2023-02-28T00:50:33.069Z,103301.53
2023-02-28T00:52:59.988Z,103301.53
2023-02-28T00:55:27.758Z,103298.25
2023-02-28T00:57:54.750Z,103296.25
2023-02-28T01:00:21.779Z,103296.84
2023-02-28T01:02:51.188Z,103289.94
2023-02-28T01:05:18.100Z,103292.41
2023-02-28T01:07:45.779Z,103293.50
2023-02-28T01:10:13.221Z,103304.59
2023-02-28T01:12:40.671Z,103295.44
2023-02-28T01:15:11.981Z,103299.38
2023-02-28T01:17:39.284Z,103301.84
2023-02-28T01:20:07.099Z,103296.81
2023-02-28T01:22:36.230Z,103301.53
2023-02-28T01:25:03.649Z,103294.38
2023-02-28T01:27:32.675Z,103286.84
2023-02-28T01:30:00.121Z,103281.34
2023-02-28T01:32:27.425Z,103277.19
2023-02-28T01:34:54.703Z,103279.72
2023-02-28T01:37:23.750Z,103285.84
2023-02-28T01:39:50.627Z,103283.09
2023-02-28T01:42:18.112Z,103290.28
2023-02-28T01:45:15.558Z,103282.81
2023-02-28T01:47:44.044Z,103283.69
2023-02-28T01:50:13.680Z,103282.00
2023-02-28T01:52:41.017Z,103267.91
2023-02-28T01:55:09.146Z,103276.22
2023-02-28T01:57:39.981Z,103262.97
2023-02-28T02:00:18.999Z,103272.13
2023-02-28T02:02:52.511Z,103274.06
2023-02-28T02:05:22.495Z,103277.69
2023-02-28T02:07:56.117Z,103271.28
2023-02-28T02:10:30.882Z,103269.59
2023-02-28T02:13:14.420Z,103262.41
2023-02-28T02:15:55.390Z,103261.03
2023-02-28T02:18:30.822Z,103255.53
2023-02-28T02:21:13.248Z,103253.00
2023-02-28T02:24:01.588Z,103252.47
2023-02-28T02:27:05.952Z,103251.69
2023-02-28T02:29:57.624Z,103250.56
2023-02-28T02:32:59.462Z,103248.06
2023-02-28T02:35:30.983Z,103246.69
2023-02-28T02:38:14.911Z,103245.03
2023-02-28T02:40:55.201Z,103243.94
2023-02-28T02:43:28.426Z,103239.25
2023-02-28T02:46:22.578Z,103238.97
2023-02-28T02:48:50.966Z,103244.50
2023-02-28T02:51:20.296Z,103242.81
2023-02-28T02:54:19.905Z,103243.66
2023-02-28T02:56:48.745Z,103243.66
2023-02-28T02:59:22.398Z,103240.91
2023-02-28T03:01:52.696Z,103238.97
2023-02-28T03:04:22.203Z,103243.97
2023-02-28T03:06:49.754Z,103243.66
2023-02-28T03:09:16.788Z,103250.31
2023-02-28T03:11:43.929Z,103241.19
2023-02-28T03:14:38.209Z,103245.91
2023-02-28T03:17:44.006Z,103245.34
2023-02-28T03:20:48.605Z,103241.72
2023-02-28T03:23:22.215Z,103248.66
2023-02-28T03:26:00.927Z,103239.81
2023-02-28T03:28:30.678Z,103243.66
2023-02-28T03:31:16.930Z,103240.88
2023-02-28T03:33:55.797Z,103240.63
2023-02-28T03:36:29.539Z,103239.50
2023-02-28T03:39:05.249Z,103240.09
2023-02-28T03:41:37.060Z,103232.59
2023-02-28T03:44:11.973Z,103247.25
2023-02-28T03:46:43.679Z,103242.81
2023-02-28T03:49:15.270Z,103242.00
2023-02-28T03:51:43.636Z,103247.53
2023-02-28T03:54:17.501Z,103249.16
2023-02-28T03:56:50.380Z,103243.38
2023-02-28T03:59:29.532Z,103244.19
2023-02-28T04:01:56.527Z,103249.19
2023-02-28T04:04:23.961Z,103248.66
2023-02-28T04:06:52.574Z,103248.09
2023-02-28T04:09:19.618Z,103245.88
2023-02-28T04:11:52.918Z,103240.88
2023-02-28T04:14:20.493Z,103248.13
2023-02-28T04:16:47.399Z,103242.28
2023-02-28T04:19:15.709Z,103245.09
2023-02-28T04:21:53.840Z,103235.44
2023-02-28T04:24:23.663Z,103239.00
2023-02-28T04:26:52.832Z,103236.50
2023-02-28T04:29:26.387Z,103235.97
2023-02-28T04:31:59.244Z,103239.78
2023-02-28T04:34:26.738Z,103244.75
2023-02-28T04:37:12.059Z,103236.72
2023-02-28T04:39:41.204Z,103233.63
2023-02-28T04:42:08.412Z,103232.78
2023-02-28T04:44:35.706Z,103237.25
2023-02-28T04:47:03.234Z,103237.75
2023-02-28T04:49:31.060Z,103229.22
2023-02-28T04:51:58.028Z,103239.22
2023-02-28T04:54:25.338Z,103238.88
2023-02-28T04:56:52.679Z,103246.28
2023-02-28T04:59:19.602Z,103237.50
2023-02-28T05:01:49.153Z,103235.31
2023-02-28T05:04:16.684Z,103243.28
2023-02-28T05:06:43.582Z,103238.34
2023-02-28T05:09:12.742Z,103235.78
2023-02-28T05:11:40.742Z,103237.16
2023-02-28T05:14:12.373Z,103240.81
2023-02-28T05:16:39.622Z,103234.97
2023-02-28T05:19:06.527Z,103245.19
2023-02-28T05:22:00.906Z,103236.91
2023-02-28T05:24:27.917Z,103246.59
2023-02-28T05:26:55.611Z,103234.19
2023-02-28T05:29:22.963Z,103238.84
2023-02-28T05:31:50.196Z,103238.06
2023-02-28T05:34:17.262Z,103238.91
2023-02-28T05:36:44.726Z,103242.19
2023-02-28T05:39:14.074Z,103244.69
2023-02-28T05:41:42.651Z,103252.69
2023-02-28T05:44:10.211Z,103256.22
2023-02-28T05:46:37.747Z,103259.28
2023-02-28T05:49:04.669Z,103256.53
2023-02-28T05:51:32.536Z,103255.09
2023-02-28T05:54:01.556Z,103257.91
2023-02-28T05:56:28.884Z,103262.03
2023-02-28T05:58:55.885Z,103253.94
2023-02-28T06:01:27.379Z,103258.41
2023-02-28T06:03:54.632Z,103256.56
2023-02-28T06:06:21.669Z,103255.78
2023-02-28T06:08:49.387Z,103260.38
2023-02-28T06:11:16.421Z,103265.00
2023-02-28T06:13:43.456Z,103264.00
2023-02-28T06:16:12.175Z,103259.28
2023-02-28T06:18:39.895Z,103259.16
2023-02-28T06:21:06.840Z,103269.88
2023-02-28T06:23:34.313Z,103270.59
2023-02-28T06:26:01.225Z,103267.50
2023-02-28T06:28:28.439Z,103270.94
2023-02-28T06:30:55.390Z,103269.13
2023-02-28T06:33:22.601Z,103271.63
2023-02-28T06:35:53.538Z,103269.44
2023-02-28T06:38:20.693Z,103274.00
2023-02-28T06:40:54.669Z,103267.09
2023-02-28T06:43:22.122Z,103277.47
2023-02-28T06:45:48.959Z,103276.22
2023-02-28T06:48:16.097Z,103283.28
2023-02-28T06:50:43.107Z,103281.88
2023-02-28T06:53:10.323Z,103287.81
2023-02-28T06:55:39.001Z,103285.69
2023-02-28T06:58:15.938Z,103302.78
2023-02-28T07:00:43.717Z,103296.34
2023-02-28T07:03:11.551Z,103306.97
2023-02-28T07:05:39.198Z,103309.22
2023-02-28T07:08:07.257Z,103307.47
2023-02-28T07:10:34.532Z,103311.06
2023-02-28T07:13:01.668Z,103308.84
2023-02-28T07:15:28.701Z,103315.25
2023-02-28T07:17:55.659Z,103307.25
2023-02-28T07:20:22.764Z,103312.44
2023-02-28T07:22:56.212Z,103315.97
2023-02-28T07:25:24.707Z,103312.63
2023-02-28T07:27:51.736Z,103321.72
2023-02-28T07:30:19.007Z,103318.28
2023-02-28T07:32:46.237Z,103324.44
2023-02-28T07:35:13.804Z,103328.44
2023-02-28T07:37:40.990Z,103322.13
2023-02-28T07:40:09.485Z,103330.28
2023-02-28T07:42:36.873Z,103329.03
2023-02-28T07:45:06.477Z,103332.72
2023-02-28T07:47:34.227Z,103326.53
2023-02-28T07:50:01.338Z,103335.88
2023-02-28T07:52:28.531Z,103340.16
2023-02-28T07:54:55.610Z,103330.19
2023-02-28T07:57:22.795Z,103326.69
2023-02-28T07:59:49.655Z,103335.50
2023-02-28T08:02:18.701Z,103333.16
2023-02-28T08:04:46.584Z,103336.00
2023-02-28T08:07:14.772Z,103333.78
2023-02-28T08:09:41.906Z,103331.69
2023-02-28T08:12:10.627Z,103343.44
2023-02-28T08:14:38.265Z,103343.75
2023-02-28T08:17:05.823Z,103334.34
2023-02-28T08:19:32.765Z,103335.19
2023-02-28T08:22:00.012Z,103337.03
2023-02-28T08:24:26.866Z,103327.28
2023-02-28T08:26:54.014Z,103326.72
2023-02-28T08:29:21.242Z,103336.13
2023-02-28T08:31:48.794Z,103326.72
2023-02-28T08:34:17.315Z,103327.53
2023-02-28T08:36:46.242Z,103331.66
2023-02-28T08:39:14.204Z,103328.53
2023-02-28T08:41:42.405Z,103330.22
2023-02-28T08:44:09.509Z,103331.31
2023-02-28T08:46:36.629Z,103328.47
2023-02-28T08:49:04.273Z,103321.56
2023-02-28T08:51:32.093Z,103329.97
2023-02-28T08:54:00.990Z,103329.63
2023-02-28T08:56:29.174Z,103335.56
2023-02-28T08:58:57.901Z,103326.56
2023-02-28T09:01:30.193Z,103318.88
2023-02-28T09:03:58.790Z,103333.56
2023-02-28T09:06:27.844Z,103324.44
2023-02-28T09:08:59.669Z,103329.59
2023-02-28T09:11:27.029Z,103326.28
2023-02-28T09:13:54.385Z,103330.97
2023-02-28T09:16:21.542Z,103325.44
2023-02-28T09:18:49.196Z,103323.31
2023-02-28T09:21:18.388Z,103324.22
2023-02-28T09:23:46.734Z,103327.22
2023-02-28T09:26:24.459Z,103320.97
2023-02-28T09:28:52.765Z,103321.75
2023-02-28T09:31:22.433Z,103321.97
2023-02-28T09:33:51.106Z,103322.31
2023-02-28T09:36:18.566Z,103331.78
2023-02-28T09:38:48.076Z,103328.13
2023-02-28T09:41:21.829Z,103326.91
2023-02-28T09:43:51.971Z,103330.78
2023-02-28T09:46:22.012Z,103329.75
2023-02-28T09:48:49.877Z,103334.59
2023-02-28T09:52:01.534Z,103341.31
2023-02-28T09:54:34.047Z,103339.47
2023-02-28T09:57:21.134Z,103337.91
2023-02-28T09:59:48.038Z,103340.53
2023-02-28T10:02:52.609Z,103347.06
2023-02-28T10:05:34.511Z,103342.97
2023-02-28T10:08:11.855Z,103343.50
2023-02-28T10:10:51.032Z,103341.00
2023-02-28T10:13:39.669Z,103337.22
2023-02-28T10:16:16.822Z,103343.06
2023-02-28T10:18:58.128Z,103340.88
2023-02-28T10:21:30.945Z,103343.25
2023-02-28T10:24:00.925Z,103347.75
2023-02-28T10:26:29.918Z,103343.47
2023-02-28T10:28:57.397Z,103339.34
2023-02-28T10:31:26.302Z,103336.97
2023-02-28T10:33:53.508Z,103334.28
2023-02-28T10:36:21.691Z,103338.00
2023-02-28T10:38:49.708Z,103348.72
2023-02-28T10:41:29.068Z,103347.69
2023-02-28T10:44:15.048Z,103343.59
2023-02-28T10:46:42.915Z,103348.03
2023-02-28T10:49:30.461Z,103347.59
2023-02-28T10:51:59.659Z,103342.69
2023-02-28T10:54:32.652Z,103338.84
2023-02-28T10:57:25.654Z,103338.72
2023-02-28T11:00:15.358Z,103336.69
2023-02-28T11:02:45.848Z,103329.84
2023-02-28T11:05:29.886Z,103326.78
2023-02-28T11:08:05.679Z,103329.06
2023-02-28T11:10:36.070Z,103319.63
2023-02-28T11:13:04.823Z,103315.69
2023-02-28T11:15:34.795Z,103318.78
2023-02-28T11:18:37.050Z,103316.88
2023-02-28T11:21:04.455Z,103313.28
2023-02-28T11:23:36.458Z,103311.06
2023-02-28T11:26:12.336Z,103307.47
2023-02-28T11:28:41.818Z,103300.25
2023-02-28T11:31:18.006Z,103306.34
2023-02-28T11:33:50.121Z,103309.63
2023-02-28T11:36:27.928Z,103307.31
2023-02-28T11:38:57.592Z,103301.34
2023-02-28T11:41:49.270Z,103305.44
2023-02-28T11:44:33.684Z,103297.97
2023-02-28T11:47:08.310Z,103296.56
2023-02-28T11:49:45.704Z,103292.91
2023-02-28T11:52:23.299Z,103292.59
2023-02-28T11:55:03.976Z,103291.88
2023-02-28T11:57:38.864Z,103289.94
2023-02-28T12:00:44.525Z,103282.72
2023-02-28T12:03:25.182Z,103283.66
2023-02-28T12:06:09.582Z,103277.75
2023-02-28T12:08:49.371Z,103282.31
2023-02-28T12:11:47.156Z,103277.97
2023-02-28T12:14:33.266Z,103272.25
2023-02-28T12:17:21.326Z,103263.66
2023-02-28T12:20:00.985Z,103268.81
2023-02-28T12:22:52.722Z,103261.47
2023-02-28T12:25:24.840Z,103258.03
2023-02-28T12:27:54.264Z,103255.25
2023-02-28T12:30:28.774Z,103254.47
2023-02-28T12:33:18.373Z,103249.09
2023-02-28T12:35:56.868Z,103238.13
2023-02-28T12:38:29.148Z,103252.53
2023-02-28T12:41:04.076Z,103244.97
2023-02-28T12:43:38.089Z,103245.69
2023-02-28T12:46:26.618Z,103249.06
2023-02-28T12:48:58.911Z,103247.53
2023-02-28T12:51:27.257Z,103234.69
2023-02-28T12:54:10.976Z,103224.53
2023-02-28T12:56:44.002Z,103225.38
2023-02-28T12:59:23.070Z,103227.72
2023-02-28T13:02:11.922Z,103222.41
2023-02-28T13:05:16.357Z,103226.34
2023-02-28T13:08:05.472Z,103211.50
2023-02-28T13:10:55.143Z,103212.41
2023-02-28T13:13:30.677Z,103208.53
2023-02-28T13:16:03.976Z,103208.69
2023-02-28T13:18:44.320Z,103201.25
2023-02-28T13:21:25.852Z,103202.00
2023-02-28T13:23:56.854Z,103206.78
2023-02-28T13:27:09.303Z,103204.06
2023-02-28T13:29:39.265Z,103200.56
2023-02-28T13:32:10.060Z,103196.53
2023-02-28T13:34:52.986Z,103189.31
2023-02-28T13:37:22.414Z,103198.59
2023-02-28T13:39:57.329Z,103204.88
2023-02-28T13:42:56.947Z,103209.69
2023-02-28T13:45:28.586Z,103196.41
2023-02-28T13:47:59.825Z,103195.97
2023-02-28T13:50:26.671Z,103203.66
2023-02-28T13:53:08.198Z,103195.47
2023-02-28T13:55:43.369Z,103195.63
2023-02-28T13:58:34.947Z,103192.03
2023-02-28T14:01:29.326Z,103192.28
2023-02-28T14:04:27.240Z,103187.88
2023-02-28T14:06:56.240Z,103192.47
2023-02-28T14:09:27.016Z,103182.47
2023-02-28T14:11:54.384Z,103182.97
2023-02-28T14:14:36.020Z,103181.34
2023-02-28T14:17:07.877Z,103182.09
2023-02-28T14:19:42.738Z,103186.09
2023-02-28T14:22:47.029Z,103183.09
2023-02-28T14:25:37.879Z,103178.94
2023-02-28T14:28:25.916Z,103178.25
2023-02-28T14:31:01.446Z,103171.81
2023-02-28T14:33:57.582Z,103172.34
2023-02-28T14:36:33.499Z,103177.22
2023-02-28T14:39:15.098Z,103175.59
2023-02-28T14:41:43.665Z,103175.59
2023-02-28T14:44:20.374Z,103174.47
2023-02-28T14:46:50.915Z,103178.91
2023-02-28T14:49:32.544Z,103177.13
2023-02-28T14:52:21.819Z,103176.00
2023-02-28T14:55:00.265Z,103173.38
2023-02-28T14:57:34.322Z,103173.34
2023-02-28T15:00:16.198Z,103173.38
2023-02-28T15:02:44.401Z,103172.28
2023-02-28T15:05:11.084Z,103165.91
2023-02-28T15:07:38.416Z,103165.06
2023-02-28T15:10:32.308Z,103171.72
2023-02-28T15:13:14.084Z,103171.72
2023-02-28T15:16:05.631Z,103174.25
2023-02-28T15:18:41.618Z,103175.84
2023-02-28T15:21:14.054Z,103168.09
2023-02-28T15:23:43.830Z,103169.50
2023-02-28T15:26:16.902Z,103164.56
2023-02-28T15:28:44.848Z,103171.22
2023-02-28T15:31:56.598Z,103165.94
2023-02-28T15:34:44.481Z,103175.06
2023-02-28T15:37:33.429Z,103185.59
2023-02-28T15:40:24.352Z,103187.28
2023-02-28T15:43:16.613Z,103183.38
2023-02-28T15:46:08.750Z,103179.50
2023-02-28T15:48:46.574Z,103171.75
2023-02-28T15:51:13.657Z,103172.28
2023-02-28T15:53:58.018Z,103170.06
2023-02-28T15:56:56.074Z,103171.75
2023-02-28T15:59:29.360Z,103185.03
2023-02-28T16:02:20.978Z,103174.50
2023-02-28T16:05:10.330Z,103171.19
2023-02-28T16:07:39.459Z,103178.13
2023-02-28T16:10:08.318Z,103168.69
2023-02-28T16:12:36.813Z,103173.69
2023-02-28T16:15:19.404Z,103177.28
2023-02-28T16:17:47.758Z,103166.19
2023-02-28T16:20:14.873Z,103173.13
2023-02-28T16:22:43.131Z,103168.41
2023-02-28T16:25:14.433Z,103163.41
2023-02-28T16:27:41.735Z,103167.03
2023-02-28T16:30:11.479Z,103168.41
2023-02-28T16:32:38.996Z,103176.16
2023-02-28T16:35:07.430Z,103180.03
2023-02-28T16:37:34.461Z,103186.69
2023-02-28T16:40:01.333Z,103198.31
2023-02-28T16:42:29.519Z,103192.47
2023-02-28T16:44:56.857Z,103193.31
2023-02-28T16:47:23.967Z,103192.22
2023-02-28T16:49:51.009Z,103198.00
2023-02-28T16:52:17.982Z,103201.31
2023-02-28T16:54:45.173Z,103205.75
2023-02-28T16:57:22.548Z,103204.38
2023-02-28T16:59:52.023Z,103198.81
2023-02-28T17:02:23.146Z,103189.97
2023-02-28T17:04:50.811Z,103199.66
2023-02-28T17:07:18.026Z,103202.41
2023-02-28T17:09:46.327Z,103205.41
2023-02-28T17:12:13.729Z,103204.00
2023-02-28T17:14:40.637Z,103202.91
2023-02-28T17:17:08.508Z,103207.09
2023-02-28T17:19:37.282Z,103209.22
2023-02-28T17:22:04.492Z,103213.38
2023-02-28T17:24:31.950Z,103215.56
2023-02-28T17:26:59.162Z,103211.44
2023-02-28T17:29:26.092Z,103213.59
2023-02-28T17:31:53.521Z,103222.16
2023-02-28T17:34:21.183Z,103225.19
2023-02-28T17:36:50.061Z,103220.25
2023-02-28T17:39:25.969Z,103222.44
2023-02-28T17:41:54.124Z,103227.69
2023-02-28T17:44:22.539Z,103241.25
2023-02-28T17:46:50.918Z,103234.63
2023-02-28T17:49:18.860Z,103240.44
2023-02-28T17:51:46.063Z,103239.25
2023-02-28T17:54:13.800Z,103237.28
2023-02-28T17:56:41.361Z,103240.28
2023-02-28T17:59:11.039Z,103249.97
2023-02-28T18:01:39.103Z,103254.13
2023-02-28T18:04:07.251Z,103254.09
2023-02-28T18:06:47.538Z,103254.63
2023-02-28T18:09:16.895Z,103257.06
2023-02-28T18:11:46.433Z,103254.00
2023-02-28T18:14:13.786Z,103248.22
2023-02-28T18:16:41.145Z,103251.81
2023-02-28T18:19:10.072Z,103249.31
2023-02-28T18:21:37.186Z,103256.00
2023-02-28T18:24:04.592Z,103264.28
2023-02-28T18:26:32.442Z,103257.88
2023-02-28T18:29:00.210Z,103265.91
2023-02-28T18:31:27.186Z,103268.09
2023-02-28T18:33:54.804Z,103258.03
2023-02-28T18:36:22.473Z,103268.03
2023-02-28T18:38:50.887Z,103280.09
2023-02-28T18:41:23.101Z,103270.97
2023-02-28T18:43:52.148Z,103274.53
2023-02-28T18:46:21.582Z,103273.06
2023-02-28T18:48:48.653Z,103281.38
2023-02-28T18:51:18.502Z,103278.69
2023-02-28T18:53:46.409Z,103274.81
2023-02-28T18:56:15.091Z,103272.25
2023-02-28T18:58:43.078Z,103273.88
2023-02-28T19:01:36.675Z,103275.75
2023-02-28T19:04:04.983Z,103281.53
2023-02-28T19:06:33.176Z,103273.81
2023-02-28T19:09:02.618Z,103281.53
2023-02-28T19:11:30.149Z,103287.00
2023-02-28T19:13:57.472Z,103281.81
2023-02-28T19:16:25.271Z,103282.66
2023-02-28T19:18:52.603Z,103272.44
2023-02-28T19:21:21.242Z,103278.78
2023-02-28T19:23:48.691Z,103274.88
2023-02-28T19:26:21.515Z,103274.31
2023-02-28T19:28:48.993Z,103274.28
2023-02-28T19:31:25.479Z,103275.63
2023-02-28T19:33:54.016Z,103270.28
2023-02-28T19:36:22.136Z,103289.84
2023-02-28T19:38:50.460Z,103281.78
2023-02-28T19:41:18.478Z,103284.34
2023-02-28T19:43:46.373Z,103283.31
2023-02-28T19:46:14.367Z,103291.03
2023-02-28T19:48:42.993Z,103288.97
2023-02-28T19:51:12.845Z,103288.75
2023-02-28T19:53:41.528Z,103289.53
2023-02-28T19:56:10.641Z,103298.09
2023-02-28T19:58:38.401Z,103293.38
2023-02-28T20:01:14.274Z,103300.41
2023-02-28T20:03:42.011Z,103296.34
2023-02-28T20:06:11.661Z,103302.66
2023-02-28T20:08:38.881Z,103299.34
2023-02-28T20:11:08.251Z,103293.78
2023-02-28T20:13:36.324Z,103287.97
2023-02-28T20:16:06.440Z,103287.13
2023-02-28T20:18:34.491Z,103288.50
2023-02-28T20:21:02.375Z,103289.00
2023-02-28T20:23:29.680Z,103291.75
2023-02-28T20:26:01.790Z,103286.25
2023-02-28T20:28:28.787Z,103290.06
2023-02-28T20:30:56.133Z,103289.31
2023-02-28T20:33:23.417Z,103289.00
2023-02-28T20:35:52.979Z,103295.34
2023-02-28T20:38:20.692Z,103290.06
2023-02-28T20:40:47.616Z,103295.34
2023-02-28T20:43:14.963Z,103302.59
2023-02-28T20:45:51.599Z,103293.69
2023-02-28T20:48:19.124Z,103299.66
2023-02-28T20:50:54.073Z,103299.97
2023-02-28T20:53:22.276Z,103298.69
2023-02-28T20:56:19.426Z,103296.84
2023-02-28T20:58:48.881Z,103296.53
2023-02-28T21:01:18.694Z,103310.88
2023-02-28T21:03:51.302Z,103309.72
2023-02-28T21:06:21.083Z,103318.25
2023-02-28T21:08:49.023Z,103312.75
2023-02-28T21:11:18.942Z,103304.97
2023-02-28T21:13:47.130Z,103310.25
2023-02-28T21:16:16.286Z,103311.50
2023-02-28T21:18:43.913Z,103321.97
2023-02-28T21:21:17.448Z,103321.22
2023-02-28T21:23:48.127Z,103322.81
2023-02-28T21:26:24.608Z,103317.56
2023-02-28T21:28:53.390Z,103318.91
2023-02-28T21:31:23.055Z,103326.50
2023-02-28T21:33:53.465Z,103317.16
2023-02-28T21:36:24.158Z,103321.34
2023-02-28T21:38:57.107Z,103333.69
2023-02-28T21:41:24.954Z,103325.94
2023-02-28T21:43:53.637Z,103328.06
2023-02-28T21:46:23.998Z,103327.50
2023-02-28T21:48:51.639Z,103326.88
2023-02-28T21:51:21.395Z,103323.97
2023-02-28T21:53:49.627Z,103327.28
2023-02-28T21:56:25.016Z,103330.31
2023-02-28T21:59:00.595Z,103337.00
2023-02-28T22:01:36.882Z,103339.50
2023-02-28T22:04:07.130Z,103330.47
2023-02-28T22:06:37.395Z,103330.50
2023-02-28T22:09:06.618Z,103325.88
2023-02-28T22:11:35.209Z,103325.81
2023-02-28T22:14:03.165Z,103331.19
2023-02-28T22:16:44.111Z,103331.88
2023-02-28T22:19:17.470Z,103322.28
2023-02-28T22:21:45.873Z,103322.44
2023-02-28T22:24:13.424Z,103326.53
2023-02-28T22:26:40.822Z,103323.03
2023-02-28T22:29:08.435Z,103327.22
2023-02-28T22:31:36.985Z,103331.38
2023-02-28T22:34:07.550Z,103334.44
2023-02-28T22:36:35.253Z,103332.88
2023-02-28T22:39:02.594Z,103336.81
2023-02-28T22:41:30.521Z,103327.44
2023-02-28T22:44:01.550Z,103331.03
2023-02-28T22:46:30.698Z,103346.56
2023-02-28T22:49:03.048Z,103343.72
2023-02-28T22:51:31.884Z,103337.88
2023-02-28T22:53:59.139Z,103340.22
2023-02-28T22:56:28.134Z,103342.22
2023-02-28T22:58:58.676Z,103336.72
2023-02-28T23:01:28.284Z,103339.28
2023-02-28T23:03:55.948Z,103337.06
2023-02-28T23:06:29.888Z,103337.31
2023-02-28T23:09:00.696Z,103341.28
2023-02-28T23:11:34.725Z,103340.22
2023-02-28T23:14:01.682Z,103339.06
2023-02-28T23:16:32.699Z,103336.22
2023-02-28T23:19:02.327Z,103341.31
2023-02-28T23:21:29.966Z,103337.97
2023-02-28T23:23:57.184Z,103341.38
2023-02-28T23:26:24.621Z,103332.22
2023-02-28T23:28:52.297Z,103325.69
2023-02-28T23:31:19.509Z,103334.44
2023-02-28T23:33:47.362Z,103335.09
2023-02-28T23:36:15.656Z,103351.53
2023-02-28T23:38:46.926Z,103353.22
2023-02-28T23:41:14.716Z,103352.63
2023-02-28T23:43:42.157Z,103354.19
2023-02-28T23:46:10.549Z,103352.03
2023-02-28T23:48:38.709Z,103354.47
2023-02-28T23:51:20.403Z,103355.75
2023-02-28T23:53:49.960Z,103344.41
2023-02-28T23:56:21.245Z,103343.72
2023-02-28T23:58:49.222Z,103345.06
